Lakeland Linder Regional Airport
KLAL : now visible

Airfield :











YOU CAN JOIN US ON...

 
LOGIN :

Register | Disclaimer

   EN    FR    IT 

 









Legend :    VFR   Marginal VFR   IFR   Intensive IFR   Very Intensive IFR
Visi :
Ceiling :
>= 8 km
>= 3000ft
5 to 8 km
1000 to 3000 ft
1500m to 5 km
500 to 1000 ft
800 to 1500m
200 to 500 ft
< 800m
< 200 ft
Symbols :   Thunderstorms  Fog  Heavy snow  Heavy precipitations  Wind > 20 kt






- Airport Elevation : 142 ft


KLAL - Lakeland Linder Regional

CURRENT METAR :
  • 042348Z 18004KT 10SM SCT026 BKN043 26/23 A2993 RMK TSE22

EXPIRED METARs :
  • 042319Z 32007KT 7SM VCSH SCT008 BKN028 26/23 A2993 RMK TSB58
  • 042301Z COR 00000KT 3/4SM +TSRA BKN008 26/24 A2993 RMK TSB58
  • 042250Z COR 36006KT 10SM RA SCT033 BKN043 OVC080 26/23 A2991
  • 042155Z 36008KT 10SM BKN050 28/23 A2991

TAF KLAL
Valid from the 05 at 00:00 until the 06 at 00:00 UTC


050007Z 0500/0524 VRB06KT P6SM SCT025 BKN040 BKN250
FM050300 VRB03KT P6SM SCT025 BKN250
FM051600 24008KT P6SM VCTS SCT025CB BKN040 BKN250 AMD NOT SKED 0502/0511
KZMA FIR / North America



MET'MAP, your aeronautical weather chart ! - Copyright ORBIFLY December 2007 - Disclaimer

ORBIFLY MET'MAP TEAM :

Programming & Development : Alexandra Zaïnal
Concept & original design : Baudouin d'Aumeries
Assistance for programming : Marc-Olivier Méhu
Technical & hardware support : Manuel Goepfert

Contact : metmap@orbifly.com




SOURCES & CREDITS :

   NOAA       Earth
Advisory